createdAt,value
2022-08-19T00:02:13.342Z,47.10
2022-08-19T00:04:41.209Z,46.81
2022-08-19T00:07:08.945Z,46.39
2022-08-19T00:09:36.235Z,47.72
2022-08-19T00:12:04.449Z,47.65
2022-08-19T00:14:33.006Z,47.74
2022-08-19T00:17:01.135Z,47.47
2022-08-19T00:19:28.234Z,47.81
2022-08-19T00:21:57.321Z,46.95
2022-08-19T00:24:24.739Z,47.45
2022-08-19T00:26:52.894Z,48.50
2022-08-19T00:29:25.631Z,48.19
2022-08-19T00:31:57.620Z,47.55
2022-08-19T00:34:26.097Z,47.58
2022-08-19T00:36:53.180Z,49.17
2022-08-19T00:39:20.330Z,48.53
2022-08-19T00:41:50.610Z,49.68
2022-08-19T00:44:27.064Z,50.28
2022-08-19T00:46:59.167Z,49.29
2022-08-19T00:49:54.445Z,48.31
2022-08-19T00:52:31.080Z,48.96
2022-08-19T00:55:00.160Z,48.09
2022-08-19T00:57:35.552Z,47.64
2022-08-19T01:00:07.766Z,48.92
2022-08-19T01:02:34.803Z,48.44
2022-08-19T01:05:10.978Z,49.22
2022-08-19T01:07:41.690Z,47.13
2022-08-19T01:10:20.145Z,47.27
2022-08-19T01:12:48.915Z,47.28
2022-08-19T01:15:22.256Z,47.09
2022-08-19T01:17:50.234Z,48.24
2022-08-19T01:20:22.249Z,49.01
2022-08-19T01:22:59.541Z,48.58
2022-08-19T01:25:41.866Z,47.81
2022-08-19T01:28:10.872Z,48.34
2022-08-19T01:30:38.927Z,49.58
2022-08-19T01:33:06.933Z,48.26
2022-08-19T01:35:34.028Z,48.40
2022-08-19T01:38:08.688Z,49.03
2022-08-19T01:40:41.383Z,48.69
2022-08-19T01:43:08.783Z,49.52
2022-08-19T01:45:37.271Z,50.28
2022-08-19T01:48:05.293Z,48.98
2022-08-19T01:50:35.044Z,48.74
2022-08-19T01:53:07.966Z,49.13
2022-08-19T01:55:40.584Z,49.36
2022-08-19T01:58:16.023Z,49.04
2022-08-19T02:00:44.629Z,49.00
2022-08-19T02:03:12.459Z,48.72
2022-08-19T02:05:41.666Z,51.62
2022-08-19T02:08:09.820Z,50.12
2022-08-19T02:10:42.812Z,49.00
2022-08-19T02:13:11.132Z,49.64
2022-08-19T02:15:38.992Z,49.52
2022-08-19T02:18:06.632Z,48.62
2022-08-19T02:20:33.845Z,47.74
2022-08-19T02:23:02.214Z,49.48
2022-08-19T02:25:29.363Z,49.38
2022-08-19T02:27:56.590Z,48.96
2022-08-19T02:30:23.724Z,48.60
2022-08-19T02:32:52.517Z,48.03
2022-08-19T02:35:19.787Z,47.87
2022-08-19T02:38:05.656Z,48.36
2022-08-19T02:40:37.645Z,48.58
2022-08-19T02:43:08.594Z,49.19
2022-08-19T02:45:40.470Z,50.24
2022-08-19T02:48:12.700Z,51.15
2022-08-19T02:50:56.108Z,49.31
2022-08-19T02:53:26.909Z,50.41
2022-08-19T02:55:54.687Z,48.59
2022-08-19T02:58:23.986Z,50.41
2022-08-19T03:00:56.714Z,48.74
2022-08-19T03:03:24.584Z,49.00
2022-08-19T03:05:56.742Z,48.13
2022-08-19T03:08:26.565Z,49.76
2022-08-19T03:10:54.079Z,49.57
2022-08-19T03:13:21.218Z,50.08
2022-08-19T03:15:49.429Z,49.16
2022-08-19T03:18:17.928Z,49.54
2022-08-19T03:20:49.964Z,50.26
2022-08-19T03:23:17.840Z,49.62
2022-08-19T03:26:03.153Z,50.02
2022-08-19T03:28:35.960Z,50.73
2022-08-19T03:31:43.936Z,50.18
2022-08-19T03:33:59.533Z,50.79
2022-08-19T03:36:29.514Z,51.72
2022-08-19T03:39:00.274Z,52.73
2022-08-19T03:41:43.291Z,52.62
2022-08-19T03:44:18.409Z,51.45
2022-08-19T03:46:49.633Z,51.38
2022-08-19T03:49:18.337Z,51.40
2022-08-19T03:51:47.090Z,50.47
2022-08-19T03:54:17.309Z,49.42
2022-08-19T03:56:47.780Z,50.85
2022-08-19T03:59:30.770Z,50.87
2022-08-19T04:02:00.065Z,50.96
2022-08-19T04:04:29.249Z,50.15
2022-08-19T04:06:57.774Z,50.65
2022-08-19T04:09:25.318Z,49.28
2022-08-19T04:11:55.663Z,51.08
2022-08-19T04:14:29.324Z,52.18
2022-08-19T04:16:56.595Z,50.66
2022-08-19T04:19:24.343Z,49.20
2022-08-19T04:21:54.818Z,48.45
2022-08-19T04:24:23.510Z,48.58
2022-08-19T04:26:51.363Z,49.82
2022-08-19T04:29:25.730Z,48.37
2022-08-19T04:31:56.516Z,48.37
2022-08-19T04:34:27.197Z,48.52
2022-08-19T04:36:57.366Z,49.01
2022-08-19T04:40:04.271Z,47.29
2022-08-19T04:42:40.054Z,48.24
2022-08-19T04:45:13.874Z,47.79
2022-08-19T04:47:49.251Z,48.94
2022-08-19T04:50:27.592Z,47.85
2022-08-19T04:52:56.513Z,47.10
2022-08-19T04:55:26.679Z,47.51
2022-08-19T04:57:55.528Z,48.27
2022-08-19T05:00:23.454Z,49.36
2022-08-19T05:02:50.638Z,47.98
2022-08-19T05:05:18.297Z,47.26
2022-08-19T05:07:45.433Z,48.85
2022-08-19T05:10:13.718Z,48.41
2022-08-19T05:12:41.024Z,47.22
2022-08-19T05:15:12.189Z,49.56
2022-08-19T05:17:39.452Z,47.51
2022-08-19T05:20:27.898Z,47.55
2022-08-19T05:22:55.083Z,48.12
2022-08-19T05:25:23.520Z,49.03
2022-08-19T05:27:50.529Z,48.72
2022-08-19T05:30:18.589Z,48.51
2022-08-19T05:32:51.345Z,47.09
2022-08-19T05:35:21.574Z,48.79
2022-08-19T05:37:48.551Z,46.68
2022-08-19T05:40:21.939Z,46.21
2022-08-19T05:42:55.194Z,46.26
2022-08-19T05:45:22.880Z,46.61
2022-08-19T05:47:49.839Z,46.05
2022-08-19T05:50:18.464Z,45.70
2022-08-19T05:52:54.357Z,47.23
2022-08-19T05:55:21.929Z,48.89
2022-08-19T05:57:49.418Z,47.61
2022-08-19T06:00:19.482Z,45.96
2022-08-19T06:02:49.901Z,44.04
2022-08-19T06:05:17.037Z,43.28
2022-08-19T06:07:44.119Z,42.34
2022-08-19T06:10:15.394Z,41.58
2022-08-19T06:12:42.370Z,42.05
2022-08-19T06:15:13.059Z,42.52
2022-08-19T06:17:40.405Z,42.37
2022-08-19T06:20:14.584Z,39.18
2022-08-19T06:22:48.294Z,37.42
2022-08-19T06:25:16.470Z,36.84
2022-08-19T06:28:11.361Z,38.47
2022-08-19T06:30:32.335Z,37.90
2022-08-19T06:32:59.573Z,37.88
2022-08-19T06:35:26.572Z,38.62
2022-08-19T06:37:53.895Z,40.58
2022-08-19T06:40:21.145Z,40.58
2022-08-19T06:42:54.279Z,41.45
2022-08-19T06:45:34.611Z,41.94
2022-08-19T06:48:03.933Z,40.43
2022-08-19T06:50:31.095Z,39.62
2022-08-19T06:52:58.042Z,40.83
2022-08-19T06:55:31.106Z,39.46
2022-08-19T06:58:04.826Z,40.92
2022-08-19T07:03:07.812Z,39.08
2022-08-19T07:05:45.947Z,41.81
2022-08-19T07:08:14.754Z,39.18
2022-08-19T07:10:46.075Z,38.62
2022-08-19T07:13:13.495Z,38.33
2022-08-19T07:15:40.650Z,39.00
2022-08-19T07:18:07.894Z,40.24
2022-08-19T07:20:42.042Z,40.60
2022-08-19T07:23:09.950Z,40.53
2022-08-19T07:25:44.291Z,40.63
2022-08-19T07:28:14.347Z,42.39
2022-08-19T07:30:52.873Z,39.91
2022-08-19T07:33:20.266Z,39.91
2022-08-19T07:35:47.354Z,38.85
2022-08-19T07:38:15.822Z,36.47
2022-08-19T07:40:44.390Z,38.23
2022-08-19T07:43:14.204Z,39.47
2022-08-19T07:45:44.513Z,37.95
2022-08-19T07:48:12.097Z,36.64
2022-08-19T07:50:39.521Z,37.81
2022-08-19T07:53:06.539Z,37.13
2022-08-19T07:55:40.525Z,36.00
2022-08-19T07:58:14.846Z,35.09
2022-08-19T08:00:43.275Z,35.19
2022-08-19T08:03:13.866Z,33.49
2022-08-19T08:05:59.906Z,33.47
2022-08-19T08:08:48.058Z,34.35
2022-08-19T08:11:20.071Z,33.25
2022-08-19T08:14:01.325Z,34.22
2022-08-19T08:16:39.491Z,31.92
2022-08-19T08:19:25.730Z,30.42
2022-08-19T08:21:59.229Z,30.96
2022-08-19T08:24:31.697Z,30.40
2022-08-19T08:27:01.293Z,29.64
2022-08-19T08:29:34.935Z,29.53
2022-08-19T08:32:02.496Z,30.50
2022-08-19T08:34:29.512Z,29.58
2022-08-19T08:36:56.916Z,28.70
2022-08-19T08:39:24.019Z,28.25
2022-08-19T08:42:20.984Z,29.35
2022-08-19T08:45:01.049Z,30.31
2022-08-19T08:47:41.918Z,28.60
2022-08-19T08:50:20.473Z,28.28
2022-08-19T08:52:49.220Z,30.16
2022-08-19T08:55:21.957Z,28.68
2022-08-19T08:57:49.632Z,29.64
2022-08-19T09:00:27.515Z,27.70
2022-08-19T09:02:56.123Z,27.05
2022-08-19T09:05:27.427Z,26.13
2022-08-19T09:08:27.614Z,28.90
2022-08-19T09:10:58.300Z,28.96
2022-08-19T09:14:03.967Z,28.67
2022-08-19T09:16:31.548Z,28.18
2022-08-19T09:19:08.277Z,30.94
2022-08-19T09:21:39.401Z,31.50
2022-08-19T09:24:07.938Z,31.16
2022-08-19T09:26:48.586Z,32.04
2022-08-19T09:29:22.585Z,29.88
2022-08-19T09:31:51.148Z,30.69
2022-08-19T09:34:21.459Z,33.51
2022-08-19T09:36:54.229Z,31.29
2022-08-19T09:39:22.263Z,30.60
2022-08-19T09:41:52.278Z,30.17
2022-08-19T09:44:21.365Z,28.70
2022-08-19T09:46:52.444Z,29.01
2022-08-19T09:49:22.749Z,29.30
2022-08-19T09:51:55.326Z,28.65
2022-08-19T09:54:23.837Z,29.04
2022-08-19T09:56:54.097Z,30.34
2022-08-19T09:59:21.619Z,29.01
2022-08-19T10:01:48.878Z,27.69
2022-08-19T10:04:20.429Z,27.26
2022-08-19T10:06:53.632Z,27.20
2022-08-19T10:09:26.297Z,29.28
2022-08-19T10:12:02.724Z,27.47
2022-08-19T10:14:30.416Z,28.02
2022-08-19T10:16:59.179Z,28.06
2022-08-19T10:19:26.839Z,27.22
2022-08-19T10:22:00.275Z,27.19
2022-08-19T10:24:29.283Z,28.57
2022-08-19T10:26:59.973Z,27.52
2022-08-19T10:29:31.937Z,27.53
2022-08-19T10:32:03.769Z,25.74
2022-08-19T10:34:32.257Z,26.07
2022-08-19T10:37:01.884Z,25.60
2022-08-19T10:39:43.422Z,26.19
2022-08-19T10:42:23.180Z,29.04
2022-08-19T10:44:51.883Z,26.76
2022-08-19T10:47:25.023Z,27.90
2022-08-19T10:50:14.891Z,26.20
2022-08-19T10:52:48.984Z,25.16
2022-08-19T10:55:39.147Z,26.42
2022-08-19T10:58:23.194Z,25.01
2022-08-19T11:00:59.809Z,25.99
2022-08-19T11:03:30.386Z,26.86
2022-08-19T11:06:07.779Z,25.49
2022-08-19T11:08:38.494Z,25.79
2022-08-19T11:11:07.418Z,26.46
2022-08-19T11:13:40.570Z,25.91
2022-08-19T11:16:18.701Z,25.42
2022-08-19T11:18:52.531Z,25.15
2022-08-19T11:21:32.841Z,24.87
2022-08-19T11:24:01.298Z,23.82
2022-08-19T11:26:30.318Z,24.17
2022-08-19T11:28:59.069Z,24.72
2022-08-19T11:31:33.351Z,24.69
2022-08-19T11:34:04.029Z,24.69
2022-08-19T11:36:33.537Z,24.12
2022-08-19T11:39:02.954Z,24.95
2022-08-19T11:41:30.106Z,25.46
2022-08-19T11:43:57.525Z,25.67
2022-08-19T11:46:28.270Z,24.75
2022-08-19T11:48:55.390Z,25.43
2022-08-19T11:51:28.058Z,25.64
2022-08-19T11:53:58.171Z,24.27
2022-08-19T11:56:26.558Z,23.73
2022-08-19T11:58:55.151Z,25.36
2022-08-19T12:01:25.990Z,24.67
2022-08-19T12:03:56.903Z,23.96
2022-08-19T12:06:29.484Z,21.80
2022-08-19T12:09:06.265Z,23.87
2022-08-19T12:11:34.680Z,24.03
2022-08-19T12:14:01.956Z,23.80
2022-08-19T12:16:31.672Z,26.16
2022-08-19T12:19:04.419Z,23.63
2022-08-19T12:21:35.057Z,26.14
2022-08-19T12:24:04.880Z,24.58
2022-08-19T12:26:32.582Z,26.62
2022-08-19T12:29:03.447Z,26.11
2022-08-19T12:31:31.180Z,25.91
2022-08-19T12:33:58.206Z,24.72
2022-08-19T12:36:26.253Z,25.43
2022-08-19T12:38:53.937Z,26.10
2022-08-19T12:41:23.239Z,23.99
2022-08-19T12:43:50.879Z,24.26
2022-08-19T12:46:22.295Z,23.69
2022-08-19T12:48:55.305Z,24.18
2022-08-19T12:51:22.584Z,25.21
2022-08-19T12:53:50.907Z,25.95
2022-08-19T12:56:23.000Z,25.72
2022-08-19T12:58:50.948Z,23.95
2022-08-19T13:01:23.117Z,24.32
2022-08-19T13:03:53.431Z,24.17
2022-08-19T13:06:20.943Z,24.28
2022-08-19T13:08:48.637Z,25.99
2022-08-19T13:11:20.004Z,25.84
2022-08-19T13:13:52.078Z,24.99
2022-08-19T13:16:21.248Z,24.68
2022-08-19T13:18:49.181Z,25.18
2022-08-19T13:21:16.669Z,25.01
2022-08-19T13:23:44.006Z,24.22
2022-08-19T13:26:13.736Z,23.55
2022-08-19T13:29:01.494Z,24.73
2022-08-19T13:31:50.815Z,24.89
2022-08-19T13:34:26.964Z,24.39
2022-08-19T13:36:59.422Z,23.67
2022-08-19T13:39:28.533Z,22.70
2022-08-19T13:41:55.690Z,24.27
2022-08-19T13:44:23.514Z,23.58
2022-08-19T13:46:54.193Z,25.02
2022-08-19T13:49:21.607Z,23.72
2022-08-19T13:51:48.795Z,24.28
2022-08-19T13:54:16.018Z,23.60
2022-08-19T13:56:46.931Z,23.70
2022-08-19T13:59:15.501Z,24.26
2022-08-19T14:01:46.429Z,23.72
2022-08-19T14:04:14.422Z,25.60
2022-08-19T14:06:45.917Z,24.13
2022-08-19T14:09:23.415Z,23.03
2022-08-19T14:11:55.248Z,20.50
2022-08-19T14:14:25.229Z,20.45
2022-08-19T14:16:57.936Z,20.41
2022-08-19T14:19:25.154Z,20.94
2022-08-19T14:21:58.557Z,20.10
2022-08-19T14:24:26.116Z,21.71
2022-08-19T14:26:53.472Z,23.00
2022-08-19T14:29:20.971Z,23.05
2022-08-19T14:31:48.029Z,22.69
2022-08-19T14:34:15.006Z,22.16
2022-08-19T14:36:42.911Z,22.89
2022-08-19T14:39:12.658Z,22.64
2022-08-19T14:41:42.234Z,22.27
2022-08-19T14:44:13.258Z,22.68
2022-08-19T14:46:41.371Z,23.14
2022-08-19T14:49:16.447Z,22.99
2022-08-19T14:51:43.550Z,22.83
2022-08-19T14:54:10.683Z,23.29
2022-08-19T14:56:37.747Z,22.01
2022-08-19T14:59:04.788Z,24.38
2022-08-19T15:01:32.069Z,22.96
2022-08-19T15:03:59.357Z,23.60
2022-08-19T15:06:27.460Z,23.10
2022-08-19T15:08:55.238Z,22.40
2022-08-19T15:11:27.693Z,23.10
2022-08-19T15:13:56.680Z,22.70
2022-08-19T15:16:26.194Z,22.02
2022-08-19T15:19:19.115Z,21.60
2022-08-19T15:21:46.172Z,21.65
2022-08-19T15:24:13.158Z,22.94
2022-08-19T15:26:41.762Z,23.91
2022-08-19T15:29:09.247Z,23.44
2022-08-19T15:31:38.748Z,23.69
2022-08-19T15:34:07.065Z,24.00
2022-08-19T15:36:35.323Z,22.94
2022-08-19T15:39:07.375Z,22.27
2022-08-19T15:41:34.737Z,22.42
2022-08-19T15:44:09.568Z,22.12
2022-08-19T15:46:40.398Z,23.42
2022-08-19T15:49:08.780Z,22.84
2022-08-19T15:51:39.125Z,23.61
2022-08-19T15:54:10.500Z,23.88
2022-08-19T15:56:57.736Z,23.02
2022-08-19T15:59:47.208Z,22.52
2022-08-19T16:02:37.219Z,23.33
2022-08-19T16:05:27.386Z,22.80
2022-08-19T16:07:54.822Z,21.96
2022-08-19T16:10:27.503Z,22.68
2022-08-19T16:12:57.865Z,22.24
2022-08-19T16:15:28.007Z,23.07
2022-08-19T16:17:58.184Z,23.28
2022-08-19T16:20:27.422Z,22.35
2022-08-19T16:22:59.044Z,22.63
2022-08-19T16:25:29.114Z,23.11
2022-08-19T16:28:07.922Z,23.36
2022-08-19T16:30:39.314Z,22.33
2022-08-19T16:33:07.191Z,22.03
2022-08-19T16:35:34.737Z,22.47
2022-08-19T16:38:02.731Z,21.61
2022-08-19T16:40:29.832Z,23.22
2022-08-19T16:42:59.155Z,22.43
2022-08-19T16:45:26.227Z,23.00
2022-08-19T16:47:53.812Z,22.29
2022-08-19T16:50:25.339Z,22.70
2022-08-19T16:53:00.524Z,21.93
2022-08-19T16:55:28.402Z,22.49
2022-08-19T16:57:55.566Z,22.72
2022-08-19T17:00:23.219Z,22.63
2022-08-19T17:02:50.338Z,23.02
2022-08-19T17:05:17.446Z,23.04
2022-08-19T17:07:45.038Z,23.19
2022-08-19T17:10:12.087Z,22.85
2022-08-19T17:12:39.146Z,23.14
2022-08-19T17:15:08.523Z,22.87
2022-08-19T17:17:37.293Z,22.57
2022-08-19T17:20:05.490Z,22.38
2022-08-19T17:22:32.600Z,22.74
2022-08-19T17:24:59.557Z,22.86
2022-08-19T17:27:31.393Z,23.94
2022-08-19T17:30:04.528Z,23.91
2022-08-19T17:32:35.635Z,24.22
2022-08-19T17:35:04.739Z,24.59
2022-08-19T17:37:32.598Z,25.10
2022-08-19T17:39:59.723Z,24.84
2022-08-19T17:42:26.964Z,25.16
2022-08-19T17:44:54.299Z,25.87
2022-08-19T17:47:21.415Z,25.69
2022-08-19T17:49:48.466Z,25.23
2022-08-19T17:52:15.576Z,25.43
2022-08-19T17:54:42.566Z,25.56
2022-08-19T17:57:09.842Z,25.99
2022-08-19T17:59:39.828Z,25.87
2022-08-19T18:02:10.046Z,26.17
2022-08-19T18:04:38.419Z,26.36
2022-08-19T18:07:06.394Z,26.09
2022-08-19T18:09:42.254Z,26.33
2022-08-19T18:12:13.134Z,27.13
2022-08-19T18:14:41.212Z,27.30
2022-08-19T18:17:13.628Z,28.00
2022-08-19T18:19:43.758Z,27.96
2022-08-19T18:22:22.527Z,28.06
2022-08-19T18:24:49.974Z,28.25
2022-08-19T18:27:17.334Z,28.93
2022-08-19T18:29:45.439Z,29.24
2022-08-19T18:32:13.598Z,29.06
2022-08-19T18:34:43.419Z,29.57
2022-08-19T18:37:11.189Z,28.96
2022-08-19T18:39:57.406Z,29.27
2022-08-19T18:42:43.875Z,29.09
2022-08-19T18:45:30.377Z,30.47
2022-08-19T18:48:27.354Z,30.54
2022-08-19T18:53:45.398Z,29.94
2022-08-19T18:56:15.541Z,30.32
2022-08-19T18:58:44.221Z,29.97
2022-08-19T19:01:30.977Z,29.94
2022-08-19T19:04:04.287Z,29.91
2022-08-19T19:06:38.019Z,30.18
2022-08-19T19:09:15.462Z,31.04
2022-08-19T19:11:46.769Z,31.23
2022-08-19T19:14:47.748Z,31.14
2022-08-19T19:17:14.340Z,31.30
2022-08-19T19:19:42.886Z,31.10
2022-08-19T19:22:14.681Z,31.53
2022-08-19T19:24:45.250Z,31.30
2022-08-19T19:27:15.463Z,31.74
2022-08-19T19:29:43.060Z,31.58
2022-08-19T19:32:21.733Z,31.69
2022-08-19T19:34:49.626Z,32.19
2022-08-19T19:37:19.526Z,32.06
2022-08-19T19:39:49.649Z,31.69
2022-08-19T19:42:21.361Z,32.03
2022-08-19T19:44:52.298Z,33.11
2022-08-19T19:47:19.880Z,32.39
2022-08-19T19:50:13.801Z,31.65
2022-08-19T19:52:40.006Z,31.71
2022-08-19T19:55:09.461Z,31.45
2022-08-19T19:57:37.440Z,32.12
2022-08-19T20:00:07.016Z,31.45
2022-08-19T20:02:34.161Z,31.53
2022-08-19T20:05:01.617Z,32.56
2022-08-19T20:07:47.030Z,32.17
2022-08-19T20:10:14.198Z,32.24
2022-08-19T20:12:44.533Z,32.60
2022-08-19T20:15:12.433Z,32.48
2022-08-19T20:17:42.291Z,32.95
2022-08-19T20:20:13.925Z,33.95
2022-08-19T20:22:43.935Z,33.70
2022-08-19T20:25:12.192Z,33.30
2022-08-19T20:27:52.276Z,34.94
2022-08-19T20:30:21.892Z,35.45
2022-08-19T20:32:50.597Z,35.02
2022-08-19T20:35:20.772Z,34.72
2022-08-19T20:37:52.861Z,34.66
2022-08-19T20:40:23.759Z,35.52
2022-08-19T20:42:50.879Z,36.22
2022-08-19T20:45:32.895Z,36.07
2022-08-19T20:48:07.216Z,36.23
2022-08-19T20:50:39.657Z,35.27
2022-08-19T20:53:16.270Z,35.74
2022-08-19T20:55:46.951Z,35.78
2022-08-19T20:58:21.195Z,35.73
2022-08-19T21:00:50.886Z,35.71
2022-08-19T21:03:21.546Z,36.38
2022-08-19T21:05:50.271Z,37.14
2022-08-19T21:08:20.266Z,37.67
2022-08-19T21:10:52.381Z,37.09
2022-08-19T21:13:20.899Z,36.30
2022-08-19T21:15:48.818Z,37.59
2022-08-19T21:18:19.819Z,37.08
2022-08-19T21:20:47.870Z,37.32
2022-08-19T21:23:25.755Z,36.89
2022-08-19T21:25:54.886Z,36.90
2022-08-19T21:28:34.338Z,36.63
2022-08-19T21:31:06.259Z,37.46
2022-08-19T21:33:40.785Z,37.53
2022-08-19T21:36:11.393Z,36.92
2022-08-19T21:38:38.781Z,36.83
2022-08-19T21:41:06.867Z,37.29
2022-08-19T21:43:36.813Z,38.71
2022-08-19T21:46:04.685Z,39.22
2022-08-19T21:48:31.795Z,38.44
2022-08-19T21:50:58.863Z,38.13
2022-08-19T21:53:31.561Z,37.46
2022-08-19T21:56:09.157Z,37.75
2022-08-19T21:58:38.696Z,37.19
2022-08-19T22:01:07.823Z,36.56
2022-08-19T22:03:37.462Z,36.69
2022-08-19T22:06:05.166Z,37.16
2022-08-19T22:08:32.373Z,37.23
2022-08-19T22:10:59.432Z,37.13
2022-08-19T22:13:27.370Z,37.46
2022-08-19T22:15:55.326Z,38.46
2022-08-19T22:18:22.356Z,38.84
2022-08-19T22:20:50.240Z,38.53
2022-08-19T22:23:17.319Z,38.09
2022-08-19T22:25:47.220Z,37.99
2022-08-19T22:28:18.762Z,37.47
2022-08-19T22:30:51.102Z,37.63
2022-08-19T22:33:20.796Z,37.42
2022-08-19T22:35:48.916Z,37.26
2022-08-19T22:38:16.614Z,39.35
2022-08-19T22:40:48.419Z,38.86
2022-08-19T22:43:37.395Z,39.34
2022-08-19T22:46:06.514Z,38.88
2022-08-19T22:48:45.293Z,39.12
2022-08-19T22:51:31.094Z,38.88
2022-08-19T22:53:58.109Z,40.21
2022-08-19T22:56:25.799Z,41.19
2022-08-19T22:58:52.857Z,40.73
2022-08-19T23:01:24.840Z,39.58
2022-08-19T23:03:56.646Z,39.54
2022-08-19T23:06:23.823Z,39.36
2022-08-19T23:09:00.272Z,39.27
2022-08-19T23:11:27.263Z,39.30
2022-08-19T23:13:54.313Z,39.92
2022-08-19T23:16:21.350Z,40.48
2022-08-19T23:18:48.629Z,40.07
2022-08-19T23:21:16.563Z,41.58
2022-08-19T23:23:44.152Z,46.59
2022-08-19T23:26:11.863Z,48.41
2022-08-19T23:28:58.127Z,48.51
2022-08-19T23:31:27.162Z,48.27
2022-08-19T23:33:54.212Z,49.88
2022-08-19T23:36:22.810Z,51.03
2022-08-19T23:38:52.374Z,52.16
2022-08-19T23:41:22.251Z,54.31
2022-08-19T23:43:50.822Z,54.96
2022-08-19T23:46:27.554Z,53.74
2022-08-19T23:48:57.034Z,53.37
2022-08-19T23:51:26.436Z,53.01
2022-08-19T23:53:53.561Z,52.72
2022-08-19T23:56:21.482Z,54.41
2022-08-19T23:58:49.215Z,53.05
